Time;durP1;ratioP1;P1;durP2;ratioP2;P2;SDS_P1;SDS_P2;PMS_P1;PMS_P2;Temp;Humidity;BMP_temperature;BMP_pressure;BME280_temperature;BME280_humidity;BME280_pressure;Samples;Min_cycle;Max_cycle;Signal;HPM_P1;HPM_P2
2023/08/24 07:01:22;;;;;;;0.47;0.47;;;27.20;99.90;28.30;101272.00;;;;6153431;22;2160157;-70
2023/08/24 07:03:49;;;;;;;0.10;0.10;;;26.00;99.90;30.20;101252.00;;;;6278422;22;20177;-67
2023/08/24 07:06:15;;;;;;;1.23;1.23;;;26.10;99.90;31.10;101302.00;;;;6278260;22;20145;-68
2023/08/24 07:08:40;;;;;;;0.47;0.47;;;26.60;99.90;31.20;101321.00;;;;6278472;22;20287;-67
2023/08/24 07:11:06;;;;;;;0.55;0.55;;;26.90;99.90;31.70;101326.00;;;;6251254;22;20549;-67
2023/08/24 07:13:34;;;;;;;0.10;0.10;;;27.10;99.90;31.30;101340.00;;;;6278264;22;20588;-67
2023/08/24 07:16:03;;;;;;;0.20;0.20;;;27.10;99.90;30.30;101320.00;;;;6225988;22;20475;-70
2023/08/24 07:18:29;;;;;;;0.20;0.20;;;26.60;99.90;29.90;101298.00;;;;6278201;22;20141;-68
2023/08/24 07:20:57;;;;;;;0.20;0.20;;;26.10;99.90;29.40;101253.00;;;;6251578;22;20202;-69
2023/08/24 07:23:23;;;;;;;0.30;0.30;;;25.80;99.90;29.20;101283.00;;;;6251198;22;20164;-69
2023/08/24 07:25:52;;;;;;;0.20;0.20;;;25.60;99.90;28.50;101246.00;;;;6278035;22;20639;-69
2023/08/24 07:28:18;;;;;;;0.20;0.20;;;25.20;99.90;29.50;101246.00;;;;6251771;22;20141;-69
2023/08/24 07:30:44;;;;;;;0.20;0.20;;;25.30;99.90;29.10;101246.00;;;;6277789;22;20275;-69
2023/08/24 07:33:11;;;;;;;0.45;0.45;;;25.20;99.90;28.90;101239.00;;;;6251286;22;20578;-69
2023/08/24 07:35:39;;;;;;;1.08;1.08;;;25.00;99.90;28.50;101240.00;;;;6251138;22;20240;-69
2023/08/24 07:38:08;;;;;;;0.55;0.45;;;25.00;99.90;28.50;101223.00;;;;6277822;22;20167;-69
2023/08/24 07:40:34;;;;;;;0.40;0.40;;;24.90;99.90;28.20;101216.00;;;;6277796;22;20149;-69
2023/08/24 07:43:02;;;;;;;2.05;1.52;;;24.70;99.90;27.80;101206.00;;;;6277711;22;20161;-69
2023/08/24 07:45:28;;;;;;;2.05;1.95;;;24.50;99.90;28.00;101211.00;;;;6251673;22;20172;-69
2023/08/24 07:47:54;;;;;;;1.10;1.10;;;24.40;99.90;28.60;101219.00;;;;6250904;22;20689;-69
2023/08/24 07:50:22;;;;;;;0.38;0.38;;;24.60;99.90;27.70;101221.00;;;;6225580;22;20165;-69
2023/08/24 07:52:49;;;;;;;0.32;0.32;;;24.40;99.90;27.40;101215.00;;;;6250790;22;20169;-70
2023/08/24 07:55:17;;;;;;;0.10;0.10;;;24.10;99.90;27.70;101238.00;;;;6278144;22;20145;-69
2023/08/24 07:57:48;;;;;;;0.32;0.32;;;24.30;99.90;28.10;101224.00;;;;6277999;22;20141;-69
2023/08/24 08:00:18;;;;;;;0.15;0.15;;;24.40;99.90;28.00;101207.00;;;;6251041;22;20503;-69
2023/08/24 08:02:43;;;;;;;0.20;0.20;;;24.40;99.90;28.00;101228.00;;;;6251591;22;20493;-69
2023/08/24 08:05:13;;;;;;;0.20;0.20;;;24.30;99.90;28.40;101210.00;;;;6277852;22;20137;-69
2023/08/24 08:07:39;;;;;;;0.20;0.20;;;24.40;99.90;28.70;101205.00;;;;6277670;22;20145;-69
2023/08/24 08:10:06;;;;;;;0.20;0.20;;;24.70;99.90;28.50;101195.00;;;;6277795;22;20151;-69
2023/08/24 08:12:33;;;;;;;0.20;0.20;;;24.60;99.90;28.40;101199.00;;;;6250616;22;20477;-69
2023/08/24 08:14:59;;;;;;;0.20;0.20;;;24.60;99.90;28.50;101202.00;;;;6277631;22;20623;-69
2023/08/24 08:17:27;;;;;;;0.10;0.10;;;24.50;99.90;28.60;101204.00;;;;6250858;22;20224;-69
2023/08/24 08:19:57;;;;;;;4.32;4.22;;;24.70;99.90;27.90;101185.00;;;;6251003;22;20138;-69
2023/08/24 08:22:25;;;;;;;0.20;0.20;;;24.60;99.90;28.30;101180.00;;;;6250472;22;20586;-69
2023/08/24 08:24:54;;;;;;;0.20;0.20;;;24.50;99.90;28.20;101174.00;;;;6250752;22;20175;-69
2023/08/24 08:27:21;;;;;;;0.22;0.22;;;24.40;99.90;28.30;101148.00;;;;6277421;22;20138;-70
2023/08/24 08:29:47;;;;;;;0.20;0.20;;;24.40;99.90;27.90;101171.00;;;;6250683;22;20249;-70
2023/08/24 08:32:16;;;;;;;0.20;0.20;;;24.40;99.90;28.50;101166.00;;;;6250647;22;20149;-69
2023/08/24 08:34:42;;;;;;;0.30;0.30;;;24.50;99.90;28.40;101176.00;;;;6277893;22;20167;-69
2023/08/24 08:37:08;;;;;;;0.68;0.68;;;24.40;99.90;28.30;101176.00;;;;6250050;22;20637;-69
2023/08/24 08:39:34;;;;;;;0.25;0.25;;;24.50;99.90;28.20;101174.00;;;;6277269;22;20167;-69
2023/08/24 08:42:01;;;;;;;0.20;0.20;;;24.40;99.90;27.90;101176.00;;;;6250421;22;20165;-69
2023/08/24 08:44:33;;;;;;;0.10;0.10;;;24.30;99.90;28.50;101176.00;;;;6277755;22;20199;-69
2023/08/24 08:47:03;;;;;;;0.75;0.75;;;24.50;99.90;28.80;101168.00;;;;6277215;22;20194;-69
2023/08/24 08:49:31;;;;;;;0.13;0.13;;;24.60;99.90;29.20;101141.00;;;;6250200;22;20481;-68
2023/08/24 08:51:57;;;;;;;0.30;0.30;;;25.00;99.90;28.60;101164.00;;;;6249969;22;20527;-69
2023/08/24 08:54:23;;;;;;;0.20;0.20;;;24.90;99.90;29.00;101164.00;;;;6277108;22;20144;-69
2023/08/24 08:56:53;;;;;;;0.20;0.20;;;24.90;99.90;29.20;101160.00;;;;6250016;22;20161;-69
2023/08/24 08:59:19;;;;;;;0.20;0.20;;;25.10;99.90;28.80;101118.00;;;;6250627;22;20218;-70
2023/08/24 09:01:47;;;;;;;0.20;0.20;;;25.10;99.90;28.90;101153.00;;;;6250327;22;20145;-69
2023/08/24 09:04:14;;;;;;;0.20;0.20;;;25.00;99.90;28.70;101152.00;;;;6250310;22;20144;-69
2023/08/24 09:06:40;;;;;;;0.20;0.20;;;24.90;99.90;29.00;101156.00;;;;6249800;22;20148;-69
2023/08/24 09:09:07;;;;;;;0.20;0.20;;;24.90;99.90;29.20;101166.00;;;;6250069;22;20176;-70
2023/08/24 09:11:33;;;;;;;0.20;0.20;;;25.00;99.90;29.50;101180.00;;;;6250193;22;20562;-69
2023/08/24 09:14:02;;;;;;;0.20;0.20;;;25.20;99.90;28.30;101174.00;;;;6249891;22;20227;-69
2023/08/24 09:16:33;;;;;;;0.20;0.20;;;25.00;99.90;29.00;101186.00;;;;6276771;22;20180;-69
2023/08/24 09:19:05;;;;;;;0.20;0.20;;;24.90;99.90;28.70;101195.00;;;;6249857;22;20141;-70
2023/08/24 09:21:31;;;;;;;0.20;0.20;;;25.00;99.90;28.40;101195.00;;;;6249883;22;20457;-68
2023/08/24 09:23:57;;;;;;;0.13;0.13;;;24.80;99.90;28.50;101244.00;;;;6277144;22;20259;-69
2023/08/24 09:26:49;;;;;;;0.50;0.50;;;24.70;99.90;26.40;101236.00;;;;6276817;22;20191;-69
2023/08/24 09:29:15;;;;;;;0.65;0.65;;;24.00;99.90;26.30;101246.00;;;;6244516;22;20360;-68
2023/08/24 09:31:43;;;;;;;0.20;0.20;;;23.40;99.90;26.00;101269.00;;;;6276932;22;20152;-69
2023/08/24 09:34:14;;;;;;;0.20;0.20;;;23.30;99.90;24.90;101264.00;;;;6249979;22;20141;-69
2023/08/24 09:36:40;;;;;;;0.60;0.60;;;22.70;99.90;25.50;101263.00;;;;6225130;22;20287;-71
2023/08/24 09:39:15;;;;;;;1.05;1.05;;;22.60;99.90;24.50;101277.00;;;;6249739;22;20146;-69
2023/08/24 09:41:50;;;;;;;0.47;0.47;;;22.30;99.90;24.30;101287.00;;;;6276586;22;20591;-68
2023/08/24 09:44:18;;;;;;;2.33;1.08;;;22.10;99.90;24.00;101241.00;;;;6249854;22;20472;-68
2023/08/24 09:46:44;;;;;;;2.35;0.95;;;22.00;99.90;25.00;101266.00;;;;6224565;22;20157;-68
2023/08/24 09:49:11;;;;;;;0.20;0.20;;;22.10;99.90;25.50;101247.00;;;;6276166;22;20148;-70
2023/08/24 09:51:39;;;;;;;0.52;0.52;;;22.40;99.90;25.00;101235.00;;;;6249734;22;20150;-69
2023/08/24 09:54:08;;;;;;;0.75;0.75;;;22.30;99.90;25.60;101216.00;;;;6249599;22;20240;-70
2023/08/24 09:56:42;;;;;;;4.97;1.13;;;22.40;99.90;25.20;101224.00;;;;6249954;22;20180;-69
2023/08/24 09:59:21;;;;;;;0.68;0.68;;;22.50;99.90;25.10;101202.00;;;;6249554;22;20141;-70
2023/08/24 10:01:50;;;;;;;2.75;2.35;;;22.30;99.90;24.90;101190.00;;;;6276491;22;20140;-70
2023/08/24 10:04:22;;;;;;;1.05;0.95;;;22.30;99.90;24.80;101177.00;;;;6249632;22;20157;-69
2023/08/24 10:06:55;;;;;;;0.40;0.40;;;22.20;99.90;24.70;101155.00;;;;6276147;22;20214;-69
2023/08/24 10:09:49;;;;;;;0.75;0.75;;;22.10;99.90;24.10;101137.00;;;;6249569;22;20144;-70
2023/08/24 10:12:20;;;;;;;2.05;1.00;;;21.80;99.90;24.70;101114.00;;;;6249511;22;20141;-70
2023/08/24 10:15:03;;;;;;;0.35;0.35;;;21.80;99.90;24.50;101079.00;;;;6249207;22;20635;-70
2023/08/24 10:17:36;;;;;;;2.92;1.65;;;21.80;99.90;24.40;101040.00;;;;6224087;22;20252;-69
2023/08/24 10:20:22;;;;;;;3.60;2.67;;;21.70;99.90;24.80;101020.00;;;;6250539;22;20252;-70
2023/08/24 10:33:27;;;;;;;1.52;1.38;;;20.50;99.90;23.40;101054.00;;;;5070216;28;20551;-68
2023/08/24 10:35:54;;;;;;;1.10;1.10;;;20.70;99.90;24.10;101011.00;;;;5048926;28;20210;-69
2023/08/24 10:38:27;;;;;;;5.47;2.17;;;20.90;99.90;24.10;100993.00;;;;5048894;28;20190;-69
2023/08/24 10:41:03;;;;;;;1.80;1.73;;;21.10;99.90;24.10;100997.00;;;;5043409;28;20236;-69
2023/08/24 10:43:30;;;;;;;3.35;2.33;;;21.10;99.90;23.70;100998.00;;;;5052581;28;20217;-69
2023/08/24 10:46:00;;;;;;;1.15;1.13;;;21.10;99.90;24.20;100976.00;;;;5040593;28;20190;-69
2023/08/24 10:48:29;;;;;;;1.10;1.10;;;21.30;99.90;24.40;100940.00;;;;5045732;28;20708;-70
2023/08/24 10:51:16;;;;;;;0.77;0.77;;;21.40;99.90;24.50;100922.00;;;;5065452;28;20189;-69
2023/08/24 10:53:45;;;;;;;1.42;1.33;;;21.60;99.90;24.60;100914.00;;;;5040491;28;20201;-69
2023/08/24 10:56:16;;;;;;;1.42;1.33;;;21.70;99.90;25.00;100909.00;;;;5050105;28;20236;-69
2023/08/24 10:58:44;;;;;;;1.50;1.40;;;22.00;99.90;25.60;100896.00;;;;5048897;28;20197;-68
2023/08/24 11:01:21;;;;;;;1.85;1.75;;;22.30;99.90;24.90;100868.00;;;;5049330;28;20248;-68
2023/08/24 11:03:55;;;;;;;1.63;1.52;;;22.50;99.90;25.40;100885.00;;;;5050144;28;20209;-69
2023/08/24 11:06:24;;;;;;;0.50;0.50;;;22.60;99.90;26.00;100901.00;;;;5028646;28;20623;-69
2023/08/24 11:09:15;;;;;;;0.95;0.95;;;22.90;99.90;26.20;100897.00;;;;5046362;28;20190;-68
2023/08/24 11:11:41;;;;;;;2.45;2.33;;;23.40;99.90;26.90;100896.00;;;;5038668;28;20202;-69
2023/08/24 11:14:29;;;;;;;0.40;0.40;;;24.00;99.90;27.10;100906.00;;;;5049422;28;20265;-69
2023/08/24 11:16:59;;;;;;;0.73;0.73;;;24.10;99.90;27.70;100912.00;;;;5048308;28;20281;-68
2023/08/24 11:19:25;;;;;;;1.35;1.33;;;24.60;99.90;27.80;100925.00;;;;5036710;28;20259;-68
2023/08/24 11:21:52;;;;;;;1.60;1.50;;;24.60;99.90;28.70;100960.00;;;;5048572;28;20273;-69
2023/08/24 11:24:18;;;;;;;0.30;0.30;;;25.30;99.90;29.80;100987.00;;;;5048169;28;20182;-69
2023/08/24 11:26:47;;;;;;;0.73;0.73;;;25.90;99.90;30.10;101025.00;;;;5048436;28;20230;-69
2023/08/24 11:29:15;;;;;;;0.80;0.80;;;26.70;99.90;29.80;101013.00;;;;5047798;28;20185;-68
2023/08/24 11:31:41;;;;;;;0.43;0.43;;;26.70;99.90;30.30;101017.00;;;;5047404;28;20829;-68
2023/08/24 11:34:08;;;;;;;0.20;0.20;;;26.70;99.90;31.10;100994.00;;;;5048108;28;20714;-67
2023/08/24 11:36:47;;;;;;;0.22;0.22;;;27.30;99.90;29.60;101018.00;;;;5048929;28;20182;-67
2023/08/24 11:39:22;;;;;;;0.20;0.20;;;27.10;99.90;29.60;101032.00;;;;5047869;28;20182;-66
2023/08/24 11:42:05;;;;;;;2.60;0.95;;;26.50;99.90;27.90;101017.00;;;;5046429;28;20213;-68
2023/08/24 11:44:48;;;;;;;0.57;0.57;;;25.80;99.90;28.20;101041.00;;;;5019577;28;20197;-68
2023/08/24 11:47:15;;;;;;;0.60;0.60;;;25.40;99.90;27.80;101060.00;;;;5034348;28;20203;-68
2023/08/24 11:49:42;;;;;;;2.08;0.60;;;25.40;99.90;27.30;101052.00;;;;5035543;28;20187;-67
2023/08/24 11:52:08;;;;;;;0.20;0.20;;;25.10;99.90;28.70;101064.00;;;;5034256;28;20217;-68
2023/08/24 11:54:38;;;;;;;0.30;0.30;;;25.30;99.90;27.30;101034.00;;;;5034486;28;20217;-68
2023/08/24 11:57:08;;;;;;;0.63;0.63;;;25.00;99.90;27.90;101046.00;;;;5034123;28;20179;-67
2023/08/24 11:59:36;;;;;;;0.20;0.20;;;24.90;99.90;28.00;101039.00;;;;5034128;28;20609;-68
2023/08/24 12:02:03;;;;;;;0.68;0.68;;;24.90;99.90;27.90;101041.00;;;;5034040;28;20183;-69
2023/08/24 12:04:42;;;;;;;0.30;0.30;;;24.80;99.90;28.30;101047.00;;;;5034335;28;20183;-68
2023/08/24 12:07:15;;;;;;;0.30;0.30;;;25.00;99.90;27.50;101021.00;;;;5030876;28;20549;-69
2023/08/24 12:09:42;;;;;;;0.20;0.20;;;24.70;99.90;27.50;101009.00;;;;5065349;28;20192;-68
2023/08/24 12:12:18;;;;;;;0.60;0.60;;;24.50;99.90;28.00;101013.00;;;;5034006;28;20227;-68
2023/08/24 12:14:46;;;;;;;0.30;0.30;;;24.70;99.90;28.10;100963.00;;;;5033798;28;20194;-68
2023/08/24 12:17:16;;;;;;;0.57;0.57;;;24.70;99.90;28.10;100997.00;;;;5033934;28;20233;-68
2023/08/24 12:20:06;;;;;;;0.30;0.30;;;24.80;99.90;29.10;101019.00;;;;5035173;28;20187;-68
2023/08/24 12:22:33;;;;;;;0.20;0.20;;;25.10;99.90;28.80;101010.00;;;;5026692;28;20653;-68
2023/08/24 12:25:02;;;;;;;0.45;0.45;;;25.20;99.90;29.10;100995.00;;;;5035091;28;20186;-68
2023/08/24 12:27:28;;;;;;;0.30;0.30;;;25.20;99.90;29.30;100980.00;;;;5017464;28;20190;-68
2023/08/24 12:29:54;;;;;;;0.25;0.25;;;25.50;99.90;28.60;100971.00;;;;5033765;28;20183;-68
2023/08/24 12:32:25;;;;;;;0.20;0.20;;;25.30;99.90;28.40;100974.00;;;;5034615;28;20286;-68
2023/08/24 12:34:54;;;;;;;0.20;0.20;;;25.20;99.90;27.80;100947.00;;;;5017770;28;20179;-68
2023/08/24 12:37:20;;;;;;;1.08;0.65;;;24.90;99.90;27.80;100955.00;;;;5034765;28;20210;-69
2023/08/24 12:39:49;;;;;;;0.63;0.63;;;24.70;99.90;27.60;100943.00;;;;5034873;28;20644;-68
2023/08/24 12:42:17;;;;;;;3.53;3.22;;;24.60;99.90;27.50;100971.00;;;;5034556;28;20244;-69
2023/08/24 12:44:43;;;;;;;0.20;0.20;;;24.60;99.90;27.20;100967.00;;;;5033721;28;20198;-68
2023/08/24 12:47:12;;;;;;;0.80;0.80;;;24.40;99.90;26.60;100973.00;;;;5035000;28;20186;-69
2023/08/24 12:49:41;;;;;;;0.73;0.73;;;24.20;99.90;26.80;100967.00;;;;5032826;28;20439;-69
2023/08/24 12:52:07;;;;;;;0.30;0.30;;;24.00;99.90;27.20;100969.00;;;;5013090;28;20657;-69
2023/08/24 12:54:33;;;;;;;0.47;0.40;;;24.10;99.90;27.00;100965.00;;;;5059927;28;20812;-68
2023/08/24 12:56:59;;;;;;;0.20;0.20;;;24.10;99.90;27.80;100972.00;;;;5033386;28;20281;-69
2023/08/24 12:59:25;;;;;;;0.40;0.40;;;24.30;99.90;27.10;100972.00;;;;5034489;28;20186;-68
2023/08/24 13:01:51;;;;;;;0.43;0.40;;;24.30;99.90;26.50;100971.00;;;;5033981;28;20201;-69
2023/08/24 13:04:17;;;;;;;0.17;0.17;;;24.00;99.90;27.20;100975.00;;;;5033004;28;20621;-69
2023/08/24 13:06:43;;;;;;;0.88;0.47;;;24.10;99.90;27.20;100974.00;;;;5033969;28;20286;-68
2023/08/24 13:09:09;;;;;;;0.20;0.20;;;24.10;99.90;27.00;100971.00;;;;5034462;28;20187;-69
2023/08/24 13:11:35;;;;;;;0.20;0.20;;;24.10;99.90;27.20;100960.00;;;;5016267;28;20230;-69
2023/08/24 13:14:04;;;;;;;1.08;1.00;;;24.10;99.90;27.50;100969.00;;;;5032481;28;20281;-68
2023/08/24 13:16:33;;;;;;;0.65;0.65;;;24.30;99.90;27.60;100973.00;;;;5032954;28;20212;-69
2023/08/24 13:18:59;;;;;;;0.47;0.47;;;24.40;99.90;27.40;100971.00;;;;5032351;28;20697;-69
2023/08/24 13:21:28;;;;;;;0.63;0.63;;;24.40;99.90;26.70;100959.00;;;;5033074;28;20667;-69
2023/08/24 13:23:54;;;;;;;1.08;0.88;;;24.20;99.90;27.00;100944.00;;;;5033634;28;20543;-68
2023/08/24 13:26:25;;;;;;;0.30;0.30;;;24.20;99.90;27.00;100945.00;;;;5016183;28;20521;-69
2023/08/24 13:28:52;;;;;;;0.60;0.60;;;24.00;99.90;26.80;100939.00;;;;5033661;28;20178;-68
2023/08/24 13:31:18;;;;;;;0.63;0.63;;;24.00;99.90;26.60;100929.00;;;;5032395;28;20278;-69
2023/08/24 13:33:50;;;;;;;0.22;0.22;;;24.00;99.90;26.70;100925.00;;;;5032240;28;20194;-68
2023/08/24 13:36:16;;;;;;;0.35;0.35;;;24.00;99.90;27.20;100928.00;;;;5033696;28;20237;-68
2023/08/24 13:38:44;;;;;;;1.38;0.52;;;24.00;99.90;27.30;100934.00;;;;5032433;28;20644;-69
2023/08/24 13:41:10;;;;;;;0.45;0.45;;;24.10;99.90;27.20;100941.00;;;;5033524;28;20205;-68
2023/08/24 13:43:36;;;;;;;0.65;0.60;;;24.30;99.90;27.70;100944.00;;;;5033472;28;20178;-69
2023/08/24 13:46:11;;;;;;;0.10;0.10;;;24.40;99.90;27.70;100910.00;;;;5033621;28;20179;-69
2023/08/24 13:48:40;;;;;;;0.28;0.28;;;24.40;99.90;27.40;100954.00;;;;5032523;28;20726;-69
2023/08/24 13:51:05;;;;;;;0.20;0.20;;;24.50;99.90;28.10;100937.00;;;;5033228;28;20217;-69
2023/08/24 13:53:31;;;;;;;0.20;0.20;;;24.50;99.90;27.50;100934.00;;;;5032627;28;20214;-69
2023/08/24 13:56:01;;;;;;;0.28;0.28;;;24.50;99.90;28.00;100933.00;;;;5031815;28;20691;-68
2023/08/24 13:58:26;;;;;;;2.08;1.75;;;24.50;99.90;27.30;100929.00;;;;5015026;28;20225;-69
2023/08/24 14:01:01;;;;;;;0.17;0.17;;;24.50;99.90;27.90;100938.00;;;;5028544;28;20212;-68
2023/08/24 14:03:27;;;;;;;0.20;0.20;;;24.50;99.90;27.90;100942.00;;;;5048425;28;20186;-69
2023/08/24 14:05:58;;;;;;;0.20;0.20;;;24.70;99.90;27.90;100949.00;;;;5032681;28;20193;-69
2023/08/24 14:08:25;;;;;;;0.20;0.20;;;24.70;99.90;27.80;100941.00;;;;5032246;28;20183;-69
2023/08/24 14:10:52;;;;;;;0.13;0.13;;;24.80;99.90;27.60;100912.00;;;;5031904;28;20190;-68
2023/08/24 14:13:18;;;;;;;0.20;0.20;;;24.80;99.90;27.40;100937.00;;;;5031847;28;20214;-69
2023/08/24 14:15:44;;;;;;;0.10;0.10;;;24.70;99.90;27.30;100949.00;;;;5033226;28;20198;-67
2023/08/24 14:18:12;;;;;;;0.90;0.90;;;24.60;99.90;28.00;100946.00;;;;5033564;28;20186;-69
2023/08/24 14:20:41;;;;;;;0.10;0.10;;;24.80;99.90;28.00;100951.00;;;;5032829;28;20624;-69
2023/08/24 14:23:07;;;;;;;0.95;0.95;;;24.80;99.90;27.10;100943.00;;;;5033471;28;20273;-69
2023/08/24 14:25:33;;;;;;;0.10;0.10;;;24.60;99.90;27.90;100962.00;;;;5031291;28;20688;-69
2023/08/24 14:28:00;;;;;;;0.13;0.13;;;24.70;99.90;27.70;100900.00;;;;5032914;28;20258;-69
2023/08/24 14:30:26;;;;;;;0.10;0.10;;;24.70;99.90;26.90;100927.00;;;;5032873;28;20682;-69
2023/08/24 14:32:52;;;;;;;1.15;0.85;;;24.40;99.90;26.60;100920.00;;;;5032717;28;20218;-68
2023/08/24 14:35:18;;;;;;;0.10;0.10;;;24.30;99.90;26.10;100901.00;;;;5033005;28;20365;-69
2023/08/24 14:37:44;;;;;;;0.35;0.30;;;24.00;99.90;26.30;100898.00;;;;5030090;28;20549;-68
2023/08/24 14:40:16;;;;;;;0.85;0.85;;;23.90;99.90;27.30;100900.00;;;;5032469;28;20183;-69
2023/08/24 14:42:42;;;;;;;0.35;0.35;;;24.10;99.90;27.20;100899.00;;;;5030030;28;20223;-69
2023/08/24 14:45:12;;;;;;;1.35;0.65;;;24.30;99.90;27.40;100905.00;;;;5032746;28;20197;-69
2023/08/24 14:47:41;;;;;;;0.20;0.20;;;24.30;99.90;27.40;100902.00;;;;5031868;28;20179;-68
2023/08/24 14:50:07;;;;;;;0.17;0.17;;;24.30;99.90;27.30;100910.00;;;;5033008;28;20182;-69
2023/08/24 14:52:33;;;;;;;0.13;0.13;;;24.30;99.90;27.00;100911.00;;;;5032498;28;20211;-69
2023/08/24 14:54:59;;;;;;;0.28;0.28;;;24.30;99.90;26.70;100921.00;;;;5032533;28;20194;-69
2023/08/24 14:57:25;;;;;;;0.10;0.10;;;24.10;99.90;27.40;100925.00;;;;5032614;28;20186;-69
2023/08/24 14:59:51;;;;;;;0.13;0.13;;;24.30;99.90;27.70;100927.00;;;;5032603;28;20179;-69
2023/08/24 15:02:17;;;;;;;0.32;0.32;;;24.40;99.90;27.20;100922.00;;;;5032313;28;20198;-69
2023/08/24 15:04:43;;;;;;;0.28;0.28;;;24.30;99.90;26.60;100905.00;;;;5031303;28;20233;-68
2023/08/24 15:07:11;;;;;;;0.10;0.10;;;24.10;99.90;26.80;100905.00;;;;5032372;28;20187;-69
2023/08/24 15:09:40;;;;;;;0.40;0.40;;;24.10;99.90;26.70;100877.00;;;;5032813;28;20226;-69
2023/08/24 15:12:06;;;;;;;0.10;0.10;;;23.90;99.90;27.00;100900.00;;;;5014574;28;20665;-70
2023/08/24 15:14:35;;;;;;;0.10;0.10;;;23.90;99.90;28.40;100894.00;;;;5031496;28;20194;-69
2023/08/24 15:17:06;;;;;;;0.65;0.65;;;24.40;99.90;27.10;100877.00;;;;5031369;28;20190;-69
2023/08/24 15:19:34;;;;;;;0.13;0.13;;;24.30;99.90;27.20;100825.00;;;;5034874;28;20269;-70
2023/08/24 15:22:00;;;;;;;0.10;0.10;;;24.20;99.90;27.80;100871.00;;;;5035769;28;20645;-69
2023/08/24 15:24:29;;;;;;;0.10;0.10;;;24.40;99.90;27.30;100864.00;;;;5036373;28;20218;-69
2023/08/24 15:26:55;;;;;;;0.10;0.10;;;24.30;99.90;27.90;100875.00;;;;5034904;28;20198;-69
2023/08/24 15:29:23;;;;;;;0.15;0.15;;;24.50;99.90;27.10;100855.00;;;;5034694;28;20183;-69
2023/08/24 15:31:49;;;;;;;0.10;0.10;;;24.30;99.90;28.30;100852.00;;;;5035717;28;20222;-69
2023/08/24 15:34:15;;;;;;;0.30;0.30;;;24.60;99.90;27.70;100848.00;;;;5038108;28;20590;-69
2023/08/24 15:36:41;;;;;;;0.10;0.10;;;24.70;99.90;27.70;100852.00;;;;5017722;28;20191;-69
2023/08/24 15:39:12;;;;;;;0.10;0.10;;;24.60;99.90;27.80;100852.00;;;;5035932;28;20187;-69
2023/08/24 15:41:40;;;;;;;0.10;0.10;;;24.60;99.90;27.80;100856.00;;;;5035510;28;20197;-69
2023/08/24 15:44:06;;;;;;;0.65;0.65;;;24.70;99.90;27.20;100827.00;;;;5051376;28;20179;-69
2023/08/24 15:46:32;;;;;;;0.10;0.10;;;24.50;99.90;27.90;100827.00;;;;5034807;28;20187;-70
2023/08/24 15:48:58;;;;;;;0.10;0.10;;;24.60;99.90;27.00;100824.00;;;;5035824;28;20536;-69
2023/08/24 15:51:24;;;;;;;0.40;0.40;;;24.40;99.90;26.10;100822.00;;;;5033471;28;20197;-70
2023/08/24 15:53:50;;;;;;;0.60;0.32;;;24.00;99.90;26.20;100823.00;;;;5035691;28;20187;-69
2023/08/24 15:56:19;;;;;;;0.10;0.10;;;23.90;99.90;28.20;100846.00;;;;5035370;28;20260;-69
2023/08/24 15:58:45;;;;;;;0.43;0.43;;;24.30;99.90;27.40;100850.00;;;;5034370;28;20333;-69
2023/08/24 16:01:14;;;;;;;0.20;0.20;;;24.60;99.90;27.40;100829.00;;;;5033791;28;20186;-69
2023/08/24 16:03:43;;;;;;;0.10;0.10;;;24.40;99.90;27.90;100837.00;;;;5035589;28;20533;-69
2023/08/24 16:06:09;;;;;;;0.10;0.10;;;24.50;99.90;28.60;100835.00;;;;5034897;28;20194;-69
2023/08/24 16:08:35;;;;;;;5.05;4.22;;;24.80;99.90;27.90;100828.00;;;;5035681;28;20179;-69
2023/08/24 16:11:02;;;;;;;0.10;0.10;;;24.90;99.90;27.10;100804.00;;;;5035240;28;20585;-69
2023/08/24 16:13:30;;;;;;;0.10;0.10;;;24.40;99.90;28.30;100843.00;;;;5033991;28;20665;-70
2023/08/24 16:15:56;;;;;;;0.10;0.10;;;24.60;99.90;28.30;100821.00;;;;5035041;28;20261;-69
2023/08/24 16:18:25;;;;;;;0.10;0.10;;;24.80;99.90;29.30;100829.00;;;;5035098;28;20286;-70
2023/08/24 16:20:52;;;;;;;0.10;0.10;;;25.20;99.90;30.00;100834.00;;;;5035027;28;20269;-69
2023/08/24 16:23:18;;;;;;;0.45;0.45;;;25.80;99.90;28.20;100812.00;;;;5033671;28;20198;-68
2023/08/24 16:25:44;;;;;;;0.20;0.20;;;25.50;99.90;26.30;100782.00;;;;5034065;28;20187;-69
2023/08/24 16:28:14;;;;;;;0.32;0.32;;;24.40;99.90;26.70;100786.00;;;;5034811;28;20183;-68
2023/08/24 16:30:40;;;;;;;0.10;0.10;;;24.20;99.90;27.60;100793.00;;;;5033978;28;20191;-70
2023/08/24 16:33:05;;;;;;;0.10;0.10;;;24.30;99.90;27.70;100798.00;;;;5034601;28;20257;-69
2023/08/24 16:35:32;;;;;;;0.10;0.10;;;24.40;99.90;27.80;100797.00;;;;5033433;28;20206;-69
2023/08/24 16:37:58;;;;;;;0.10;0.10;;;24.50;99.90;28.60;100794.00;;;;5034623;28;20201;-70
2023/08/24 16:40:24;;;;;;;0.10;0.10;;;24.80;99.90;28.90;100807.00;;;;5034840;28;20634;-69
2023/08/24 16:42:50;;;;;;;0.10;0.10;;;25.10;99.90;29.00;100776.00;;;;5034066;28;20214;-70
2023/08/24 16:45:16;;;;;;;0.10;0.10;;;25.20;99.90;29.80;100820.00;;;;5034453;28;20542;-67
2023/08/24 16:47:42;;;;;;;0.13;0.13;;;25.70;99.90;27.80;100800.00;;;;5034725;28;20248;-70
2023/08/24 16:50:09;;;;;;;0.25;0.25;;;25.20;99.90;27.90;100802.00;;;;5034198;28;20182;-70
2023/08/24 16:52:35;;;;;;;0.50;0.50;;;25.10;99.90;28.40;100771.00;;;;5034437;28;20198;-70
2023/08/24 16:55:04;;;;;;;0.40;0.40;;;25.00;99.90;26.70;100789.00;;;;5033240;28;20178;-70
2023/08/24 16:57:30;;;;;;;0.10;0.10;;;24.60;99.90;27.30;100778.00;;;;5034111;28;20530;-70
2023/08/24 16:59:56;;;;;;;0.40;0.40;;;24.30;99.90;27.80;100790.00;;;;5034241;28;20661;-69
2023/08/24 17:02:22;;;;;;;0.10;0.10;;;24.60;99.90;28.10;100776.00;;;;5032932;28;20305;-70
2023/08/24 17:04:48;;;;;;;0.40;0.40;;;24.60;99.90;28.50;100769.00;;;;5034054;28;20538;-70
2023/08/24 17:07:21;;;;;;;0.30;0.30;;;24.90;99.90;29.20;100772.00;;;;5032942;28;20163;-70
2023/08/24 17:09:46;;;;;;;0.10;0.10;;;25.20;99.90;27.80;100754.00;;;;5034252;28;20182;-70
2023/08/24 17:12:12;;;;;;;0.10;0.10;;;24.90;99.90;28.90;100771.00;;;;5033830;28;20783;-70
2023/08/24 17:14:41;;;;;;;0.10;0.10;;;25.00;99.90;28.80;100769.00;;;;5032878;28;20193;-70
2023/08/24 17:17:09;;;;;;;0.32;0.32;;;25.10;99.90;28.40;100745.00;;;;5033007;28;20186;-69
2023/08/24 17:19:35;;;;;;;1.00;1.00;;;25.00;99.90;27.50;100761.00;;;;5034005;28;20194;-69
2023/08/24 17:22:04;;;;;;;1.80;0.80;;;24.60;99.90;27.10;100752.00;;;;5034083;28;20187;-69
2023/08/24 17:24:31;;;;;;;1.20;0.60;;;24.30;99.90;27.90;100772.00;;;;5034053;28;20305;-69
2023/08/24 17:26:57;;;;;;;0.35;0.35;;;24.40;99.90;26.60;100768.00;;;;5033441;28;20194;-69
2023/08/24 17:29:23;;;;;;;0.95;0.85;;;24.20;99.90;26.50;100777.00;;;;5032491;28;20179;-69
2023/08/24 17:31:51;;;;;;;0.47;0.47;;;24.00;99.90;27.10;100785.00;;;;5033142;28;20606;-69
2023/08/24 17:34:17;;;;;;;4.82;2.03;;;24.10;99.90;26.90;100785.00;;;;5033752;28;20265;-69
2023/08/24 17:36:43;;;;;;;1.23;1.20;;;24.00;99.90;27.50;100782.00;;;;5032481;28;20265;-70
2023/08/24 17:39:12;;;;;;;1.88;0.60;;;24.30;99.90;27.30;100819.00;;;;5033410;28;20190;-69
2023/08/24 17:41:41;;;;;;;0.75;0.75;;;24.30;99.90;27.30;100820.00;;;;5032412;28;20189;-69
2023/08/24 17:44:07;;;;;;;0.30;0.30;;;24.30;99.90;26.60;100818.00;;;;5032422;28;20205;-69
2023/08/24 17:46:36;;;;;;;0.50;0.50;;;24.10;99.90;26.80;100790.00;;;;5032128;28;20190;-69
2023/08/24 17:49:04;;;;;;;0.20;0.20;;;24.00;99.90;27.40;100837.00;;;;5015974;28;20595;-69
2023/08/24 17:51:30;;;;;;;0.40;0.40;;;24.10;99.90;27.10;100835.00;;;;5031031;28;20228;-69
2023/08/24 17:53:58;;;;;;;0.70;0.70;;;24.20;99.90;27.70;100839.00;;;;5032348;28;20182;-69
2023/08/24 17:56:26;;;;;;;0.22;0.22;;;24.30;99.90;26.60;100813.00;;;;5020845;28;20226;-69
2023/08/24 17:58:52;;;;;;;0.10;0.10;;;24.00;99.90;28.40;100801.00;;;;5033567;28;20182;-69
2023/08/24 18:01:18;;;;;;;0.15;0.15;;;24.40;99.90;28.50;100807.00;;;;5033473;28;20241;-70
2023/08/24 18:03:44;;;;;;;0.20;0.20;;;24.60;99.90;27.90;100809.00;;;;5015579;28;20195;-69